CA33 weather

County Medical Center Heliport
San Jose, California, United States

Public forecast

Using degrees Fahrenheit for public forecast. Weather courtesy of forecast.io.

METAR (pilot weather report)

Closest report is Norman Y. Mineta San Jose International Airport, 2.9 nm (5.4 km) N. Retrieved 2019/06/27 11:53 UTC (38 minutes ago):

KSJC 271153Z AUTO 34007KT 10SM FEW026 14/11 A3006 RMK AO2 SLP179 T01390111 10161 20139 53001 $

TAF (pilot weather forecast)

Closest forecast is Norman Y. Mineta San Jose International Airport, 2.9 nm (5.4 km) N. Retrieved 2019/06/27 12:40 UTC (0 seconds ago):

TAF KSJC 271138Z 2712/2812 32006KT P6SM BKN025 FM271600 VRB03KT P6SM SCT030 FM271800 31012KT P6SM FEW030 SCT200 FM280400 31006KT P6SM SCT025 BKN200 FM280600 VRB03KT P6SM BKN020